sensor_id;sensor_type;location;lat;lon;timestamp;pressure;altitude;pressure_sealevel;temperature;humidity
20620;BME280;10469;42.720;23.252;2023-03-26T00:00:45;94386.44;;;9.69;100.00
20620;BME280;10469;42.720;23.252;2023-03-26T00:03:13;94387.41;;;9.79;100.00
20620;BME280;10469;42.720;23.252;2023-03-26T00:05:39;94397.00;;;9.92;100.00
20620;BME280;10469;42.720;23.252;2023-03-26T00:08:05;94385.31;;;9.82;100.00
20620;BME280;10469;42.720;23.252;2023-03-26T00:10:37;94405.69;;;9.83;100.00
20620;BME280;10469;42.720;23.252;2023-03-26T00:13:05;94372.00;;;9.70;100.00
20620;BME280;10469;42.720;23.252;2023-03-26T00:15:31;94384.84;;;9.85;100.00
20620;BME280;10469;42.720;23.252;2023-03-26T00:17:57;94369.50;;;9.63;100.00
20620;BME280;10469;42.720;23.252;2023-03-26T00:20:25;94378.81;;;9.77;100.00
20620;BME280;10469;42.720;23.252;2023-03-26T00:22:52;94379.31;;;9.91;100.00
20620;BME280;10469;42.720;23.252;2023-03-26T00:25:20;94375.66;;;9.80;100.00
20620;BME280;10469;42.720;23.252;2023-03-26T00:27:46;94381.81;;;9.64;100.00
20620;BME280;10469;42.720;23.252;2023-03-26T00:30:14;94372.06;;;9.58;100.00
20620;BME280;10469;42.720;23.252;2023-03-26T00:32:39;94383.38;;;9.60;100.00
20620;BME280;10469;42.720;23.252;2023-03-26T00:35:05;94384.31;;;9.54;100.00
20620;BME280;10469;42.720;23.252;2023-03-26T00:37:31;94380.19;;;9.46;100.00
20620;BME280;10469;42.720;23.252;2023-03-26T00:39:58;94384.19;;;9.32;100.00
20620;BME280;10469;42.720;23.252;2023-03-26T00:42:28;94375.03;;;9.28;100.00
20620;BME280;10469;42.720;23.252;2023-03-26T00:44:54;94388.34;;;9.40;100.00
20620;BME280;10469;42.720;23.252;2023-03-26T00:47:28;94383.47;;;9.37;100.00
20620;BME280;10469;42.720;23.252;2023-03-26T00:49:54;94371.31;;;9.29;100.00
20620;BME280;10469;42.720;23.252;2023-03-26T00:52:23;94381.38;;;9.39;100.00
20620;BME280;10469;42.720;23.252;2023-03-26T00:54:51;94382.19;;;9.39;100.00
20620;BME280;10469;42.720;23.252;2023-03-26T00:57:18;94381.94;;;9.41;100.00
20620;BME280;10469;42.720;23.252;2023-03-26T00:59:49;94370.69;;;9.39;100.00
20620;BME280;10469;42.720;23.252;2023-03-26T01:02:17;94369.63;;;9.40;100.00
20620;BME280;10469;42.720;23.252;2023-03-26T01:04:56;94365.59;;;9.37;100.00
20620;BME280;10469;42.720;23.252;2023-03-26T01:07:25;94388.22;;;9.46;100.00
20620;BME280;10469;42.720;23.252;2023-03-26T01:09:55;94378.78;;;9.44;100.00
20620;BME280;10469;42.720;23.252;2023-03-26T01:12:23;94379.78;;;9.38;100.00
20620;BME280;10469;42.720;23.252;2023-03-26T01:14:52;94372.94;;;9.30;100.00
20620;BME280;10469;42.720;23.252;2023-03-26T01:17:19;94392.00;;;9.34;100.00
20620;BME280;10469;42.720;23.252;2023-03-26T01:19:51;94400.28;;;9.49;100.00
20620;BME280;10469;42.720;23.252;2023-03-26T01:22:21;94404.09;;;9.53;100.00
20620;BME280;10469;42.720;23.252;2023-03-26T01:24:47;94398.69;;;9.48;100.00
20620;BME280;10469;42.720;23.252;2023-03-26T01:30:14;94413.38;;;9.62;100.00
20620;BME280;10469;42.720;23.252;2023-03-26T01:43:54;94409.91;;;9.78;100.00
20620;BME280;10469;42.720;23.252;2023-03-26T01:46:24;94413.25;;;9.86;100.00
20620;BME280;10469;42.720;23.252;2023-03-26T01:48:50;94403.81;;;9.83;100.00
20620;BME280;10469;42.720;23.252;2023-03-26T01:51:31;94419.53;;;9.79;100.00
20620;BME280;10469;42.720;23.252;2023-03-26T01:53:58;94406.75;;;9.82;100.00
20620;BME280;10469;42.720;23.252;2023-03-26T01:56:27;94408.81;;;9.63;100.00
20620;BME280;10469;42.720;23.252;2023-03-26T02:01:58;94417.03;;;9.27;100.00
20620;BME280;10469;42.720;23.252;2023-03-26T02:04:36;94416.13;;;9.22;100.00
20620;BME280;10469;42.720;23.252;2023-03-26T02:09:36;94414.00;;;9.07;100.00
20620;BME280;10469;42.720;23.252;2023-03-26T02:12:07;94411.78;;;9.04;100.00
20620;BME280;10469;42.720;23.252;2023-03-26T02:14:33;94418.00;;;9.21;100.00
20620;BME280;10469;42.720;23.252;2023-03-26T02:17:00;94428.88;;;9.32;100.00
20620;BME280;10469;42.720;23.252;2023-03-26T02:19:25;94422.25;;;9.34;100.00
20620;BME280;10469;42.720;23.252;2023-03-26T02:21:51;94413.16;;;9.35;100.00
20620;BME280;10469;42.720;23.252;2023-03-26T02:24:18;94419.66;;;9.39;100.00
20620;BME280;10469;42.720;23.252;2023-03-26T02:26:44;94401.94;;;9.21;100.00
20620;BME280;10469;42.720;23.252;2023-03-26T02:29:10;94420.25;;;9.41;100.00
20620;BME280;10469;42.720;23.252;2023-03-26T02:31:36;94421.31;;;9.57;100.00
20620;BME280;10469;42.720;23.252;2023-03-26T02:34:02;94421.31;;;9.57;100.00
20620;BME280;10469;42.720;23.252;2023-03-26T02:36:27;94415.31;;;9.50;100.00
20620;BME280;10469;42.720;23.252;2023-03-26T02:38:54;94427.00;;;9.32;100.00
20620;BME280;10469;42.720;23.252;2023-03-26T02:41:22;94441.53;;;9.36;100.00
20620;BME280;10469;42.720;23.252;2023-03-26T02:43:48;94435.00;;;9.15;100.00
20620;BME280;10469;42.720;23.252;2023-03-26T02:46:13;94419.56;;;8.77;100.00
20620;BME280;10469;42.720;23.252;2023-03-26T02:48:39;94431.63;;;8.79;100.00
20620;BME280;10469;42.720;23.252;2023-03-26T02:51:06;94447.91;;;8.66;100.00
20620;BME280;10469;42.720;23.252;2023-03-26T02:53:31;94446.19;;;8.60;100.00
20620;BME280;10469;42.720;23.252;2023-03-26T02:55:58;94438.53;;;8.40;100.00
20620;BME280;10469;42.720;23.252;2023-03-26T02:58:25;94451.63;;;8.42;100.00
20620;BME280;10469;42.720;23.252;2023-03-26T03:00:52;94453.72;;;8.28;100.00
20620;BME280;10469;42.720;23.252;2023-03-26T03:03:21;94456.63;;;8.26;100.00
20620;BME280;10469;42.720;23.252;2023-03-26T03:05:50;94443.50;;;8.25;100.00
20620;BME280;10469;42.720;23.252;2023-03-26T03:08:17;94451.41;;;8.32;100.00
20620;BME280;10469;42.720;23.252;2023-03-26T03:10:43;94451.63;;;8.30;100.00
20620;BME280;10469;42.720;23.252;2023-03-26T03:13:08;94440.34;;;8.28;100.00
20620;BME280;10469;42.720;23.252;2023-03-26T03:15:34;94441.53;;;8.32;100.00
20620;BME280;10469;42.720;23.252;2023-03-26T03:18:00;94453.38;;;8.36;100.00
20620;BME280;10469;42.720;23.252;2023-03-26T03:20:25;94450.94;;;8.35;100.00
20620;BME280;10469;42.720;23.252;2023-03-26T03:22:51;94459.66;;;8.30;100.00
20620;BME280;10469;42.720;23.252;2023-03-26T03:25:16;94455.56;;;8.27;100.00
20620;BME280;10469;42.720;23.252;2023-03-26T03:27:42;94472.44;;;8.40;100.00
20620;BME280;10469;42.720;23.252;2023-03-26T03:30:10;94463.16;;;8.42;100.00
20620;BME280;10469;42.720;23.252;2023-03-26T03:32:36;94441.88;;;8.36;100.00
20620;BME280;10469;42.720;23.252;2023-03-26T03:35:02;94441.53;;;8.32;100.00
20620;BME280;10469;42.720;23.252;2023-03-26T03:37:28;94438.63;;;8.34;100.00
20620;BME280;10469;42.720;23.252;2023-03-26T03:39:53;94444.88;;;8.27;100.00
20620;BME280;10469;42.720;23.252;2023-03-26T03:42:19;94450.34;;;8.33;100.00
20620;BME280;10469;42.720;23.252;2023-03-26T03:44:45;94444.06;;;8.27;100.00
20620;BME280;10469;42.720;23.252;2023-03-26T03:47:10;94443.38;;;8.20;100.00
20620;BME280;10469;42.720;23.252;2023-03-26T03:49:38;94470.78;;;8.27;100.00
20620;BME280;10469;42.720;23.252;2023-03-26T03:52:05;94459.28;;;8.15;100.00
20620;BME280;10469;42.720;23.252;2023-03-26T03:54:31;94475.78;;;8.23;100.00
20620;BME280;10469;42.720;23.252;2023-03-26T03:56:56;94474.88;;;8.29;100.00
20620;BME280;10469;42.720;23.252;2023-03-26T03:59:22;94478.34;;;8.42;100.00
20620;BME280;10469;42.720;23.252;2023-03-26T04:01:48;94472.22;;;8.41;100.00
20620;BME280;10469;42.720;23.252;2023-03-26T04:04:15;94465.00;;;8.30;100.00
20620;BME280;10469;42.720;23.252;2023-03-26T04:06:41;94476.38;;;8.37;100.00
20620;BME280;10469;42.720;23.252;2023-03-26T04:09:07;94487.28;;;8.36;100.00
20620;BME280;10469;42.720;23.252;2023-03-26T04:11:35;94487.06;;;8.37;100.00
20620;BME280;10469;42.720;23.252;2023-03-26T04:14:00;94500.69;;;8.47;100.00
20620;BME280;10469;42.720;23.252;2023-03-26T04:16:26;94511.84;;;8.56;100.00
20620;BME280;10469;42.720;23.252;2023-03-26T04:18:52;94513.91;;;8.54;100.00
20620;BME280;10469;42.720;23.252;2023-03-26T04:21:17;94515.44;;;8.62;100.00
20620;BME280;10469;42.720;23.252;2023-03-26T04:23:43;94514.41;;;8.51;100.00
20620;BME280;10469;42.720;23.252;2023-03-26T04:26:14;94532.72;;;8.59;100.00
20620;BME280;10469;42.720;23.252;2023-03-26T04:28:53;94532.63;;;8.66;100.00
20620;BME280;10469;42.720;23.252;2023-03-26T04:31:22;94537.97;;;8.54;100.00
20620;BME280;10469;42.720;23.252;2023-03-26T04:33:49;94546.78;;;8.54;100.00
20620;BME280;10469;42.720;23.252;2023-03-26T04:36:22;94525.09;;;8.51;100.00
20620;BME280;10469;42.720;23.252;2023-03-26T04:38:48;94518.69;;;8.52;100.00
20620;BME280;10469;42.720;23.252;2023-03-26T04:41:16;94548.44;;;8.79;100.00
20620;BME280;10469;42.720;23.252;2023-03-26T04:43:42;94533.34;;;8.73;100.00
20620;BME280;10469;42.720;23.252;2023-03-26T04:46:17;94551.81;;;8.74;100.00
20620;BME280;10469;42.720;23.252;2023-03-26T04:48:49;94540.66;;;8.66;100.00
20620;BME280;10469;42.720;23.252;2023-03-26T04:51:16;94532.72;;;8.59;100.00
20620;BME280;10469;42.720;23.252;2023-03-26T04:53:51;94561.00;;;8.78;100.00
20620;BME280;10469;42.720;23.252;2023-03-26T04:56:35;94539.13;;;8.58;100.00
20620;BME280;10469;42.720;23.252;2023-03-26T04:59:03;94546.34;;;8.69;100.00
20620;BME280;10469;42.720;23.252;2023-03-26T05:01:30;94531.34;;;8.57;100.00
20620;BME280;10469;42.720;23.252;2023-03-26T05:03:56;94549.47;;;8.90;100.00
20620;BME280;10469;42.720;23.252;2023-03-26T05:06:25;94558.88;;;9.04;100.00
20620;BME280;10469;42.720;23.252;2023-03-26T05:08:53;94573.97;;;9.10;100.00
20620;BME280;10469;42.720;23.252;2023-03-26T05:11:19;94584.16;;;9.37;100.00
20620;BME280;10469;42.720;23.252;2023-03-26T05:13:45;94593.03;;;9.25;100.00
20620;BME280;10469;42.720;23.252;2023-03-26T05:16:12;94556.56;;;9.08;100.00
20620;BME280;10469;42.720;23.252;2023-03-26T05:18:38;94573.97;;;9.34;100.00
20620;BME280;10469;42.720;23.252;2023-03-26T05:21:03;94585.28;;;9.64;100.00
20620;BME280;10469;42.720;23.252;2023-03-26T05:23:29;94564.44;;;9.95;100.00
20620;BME280;10469;42.720;23.252;2023-03-26T05:25:57;94591.34;;;9.88;100.00
20620;BME280;10469;42.720;23.252;2023-03-26T05:28:22;94596.44;;;9.73;100.00
20620;BME280;10469;42.720;23.252;2023-03-26T05:30:52;94595.00;;;10.73;100.00
20620;BME280;10469;42.720;23.252;2023-03-26T05:33:19;94589.00;;;9.92;100.00
20620;BME280;10469;42.720;23.252;2023-03-26T05:35:46;94596.13;;;10.43;100.00
20620;BME280;10469;42.720;23.252;2023-03-26T05:38:13;94592.72;;;10.02;100.00
20620;BME280;10469;42.720;23.252;2023-03-26T05:40:39;94593.69;;;10.13;100.00
20620;BME280;10469;42.720;23.252;2023-03-26T05:43:05;94600.13;;;10.12;100.00
20620;BME280;10469;42.720;23.252;2023-03-26T05:45:30;94596.50;;;11.19;100.00
20620;BME280;10469;42.720;23.252;2023-03-26T05:47:56;94593.44;;;11.93;100.00
20620;BME280;10469;42.720;23.252;2023-03-26T05:50:22;94588.59;;;13.14;100.00
20620;BME280;10469;42.720;23.252;2023-03-26T05:52:47;94576.28;;;14.64;100.00
20620;BME280;10469;42.720;23.252;2023-03-26T05:55:13;94579.03;;;15.95;100.00
20620;BME280;10469;42.720;23.252;2023-03-26T05:57:39;94560.50;;;16.62;100.00
20620;BME280;10469;42.720;23.252;2023-03-26T06:00:05;94586.69;;;15.62;100.00
20620;BME280;10469;42.720;23.252;2023-03-26T06:02:35;94587.03;;;16.65;100.00
20620;BME280;10469;42.720;23.252;2023-03-26T06:05:01;94594.75;;;14.14;100.00
20620;BME280;10469;42.720;23.252;2023-03-26T06:07:28;94592.50;;;13.86;100.00
20620;BME280;10469;42.720;23.252;2023-03-26T06:09:55;94570.81;;;13.55;100.00
20620;BME280;10469;42.720;23.252;2023-03-26T06:12:21;94578.16;;;15.09;100.00
20620;BME280;10469;42.720;23.252;2023-03-26T06:14:46;94574.13;;;14.91;100.00
20620;BME280;10469;42.720;23.252;2023-03-26T06:17:12;94562.38;;;16.66;100.00
20620;BME280;10469;42.720;23.252;2023-03-26T06:19:38;94570.78;;;18.48;91.11
20620;BME280;10469;42.720;23.252;2023-03-26T06:22:04;94569.53;;;17.20;95.24
20620;BME280;10469;42.720;23.252;2023-03-26T06:24:31;94578.69;;;16.12;100.00
20620;BME280;10469;42.720;23.252;2023-03-26T06:26:57;94576.16;;;16.75;100.00
20620;BME280;10469;42.720;23.252;2023-03-26T06:29:23;94563.50;;;17.28;93.15
20620;BME280;10469;42.720;23.252;2023-03-26T06:31:49;94559.19;;;16.59;92.73
20620;BME280;10469;42.720;23.252;2023-03-26T06:34:14;94575.38;;;15.55;99.55
20620;BME280;10469;42.720;23.252;2023-03-26T06:36:40;94564.13;;;15.07;100.00
20620;BME280;10469;42.720;23.252;2023-03-26T06:39:06;94553.25;;;13.42;100.00
20620;BME280;10469;42.720;23.252;2023-03-26T06:41:33;94568.50;;;12.89;100.00
20620;BME280;10469;42.720;23.252;2023-03-26T06:43:59;94581.00;;;12.09;100.00
20620;BME280;10469;42.720;23.252;2023-03-26T06:46:24;94574.53;;;11.22;100.00
20620;BME280;10469;42.720;23.252;2023-03-26T06:48:51;94591.94;;;12.29;100.00
20620;BME280;10469;42.720;23.252;2023-03-26T06:51:16;94600.16;;;11.74;100.00
20620;BME280;10469;42.720;23.252;2023-03-26T06:53:42;94579.66;;;12.66;100.00
20620;BME280;10469;42.720;23.252;2023-03-26T06:56:08;94607.34;;;12.66;100.00
20620;BME280;10469;42.720;23.252;2023-03-26T06:58:34;94606.53;;;13.83;100.00
20620;BME280;10469;42.720;23.252;2023-03-26T07:00:59;94601.94;;;13.88;100.00
20620;BME280;10469;42.720;23.252;2023-03-26T07:03:25;94590.47;;;15.76;100.00
20620;BME280;10469;42.720;23.252;2023-03-26T07:05:50;94590.28;;;17.01;93.59
20620;BME280;10469;42.720;23.252;2023-03-26T07:08:16;94606.63;;;14.08;100.00
20620;BME280;10469;42.720;23.252;2023-03-26T07:10:42;94585.09;;;16.70;95.74
20620;BME280;10469;42.720;23.252;2023-03-26T07:13:08;94586.19;;;17.38;87.47
20620;BME280;10469;42.720;23.252;2023-03-26T08:21:57;94567.31;;;17.27;63.27
20620;BME280;10469;42.720;23.252;2023-03-26T08:24:58;94571.47;;;17.97;62.27
20620;BME280;10469;42.720;23.252;2023-03-26T08:27:38;94568.78;;;16.41;68.05
20620;BME280;10469;42.720;23.252;2023-03-26T08:30:13;94557.22;;;17.57;64.35
20620;BME280;10469;42.720;23.252;2023-03-26T08:32:40;94543.41;;;18.63;60.20
20620;BME280;10469;42.720;23.252;2023-03-26T08:35:10;94555.75;;;20.86;53.91
20620;BME280;10469;42.720;23.252;2023-03-26T08:37:36;94555.44;;;20.88;50.85
20620;BME280;10469;42.720;23.252;2023-03-26T08:40:01;94555.56;;;20.60;49.46
20620;BME280;10469;42.720;23.252;2023-03-26T08:45:25;94556.63;;;19.82;51.22
20620;BME280;10469;42.720;23.252;2023-03-26T08:55:40;94562.13;;;19.49;50.83
20620;BME280;10469;42.720;23.252;2023-03-26T09:09:52;94551.44;;;21.61;42.85
20620;BME280;10469;42.720;23.252;2023-03-26T09:37:45;94527.31;;;20.56;44.57
20620;BME280;10469;42.720;23.252;2023-03-26T09:40:19;94517.28;;;18.67;48.43
20620;BME280;10469;42.720;23.252;2023-03-26T09:48:53;94513.00;;;21.49;42.96
20620;BME280;10469;42.720;23.252;2023-03-26T09:57:46;94511.63;;;21.60;40.08
20620;BME280;10469;42.720;23.252;2023-03-26T10:00:28;94497.84;;;20.80;40.22
20620;BME280;10469;42.720;23.252;2023-03-26T10:03:17;94495.16;;;21.12;40.04
20620;BME280;10469;42.720;23.252;2023-03-26T10:16:41;94475.13;;;21.39;38.87
20620;BME280;10469;42.720;23.252;2023-03-26T10:19:21;94473.88;;;19.55;40.38
20620;BME280;10469;42.720;23.252;2023-03-26T10:40:43;94438.59;;;20.05;36.84
20620;BME280;10469;42.720;23.252;2023-03-26T10:52:18;94426.97;;;20.80;33.86
20620;BME280;10469;42.720;23.252;2023-03-26T10:54:54;94439.41;;;19.92;34.95
20620;BME280;10469;42.720;23.252;2023-03-26T10:59:45;94414.06;;;23.04;31.23
20620;BME280;10469;42.720;23.252;2023-03-26T11:02:29;94404.47;;;21.86;30.80
20620;BME280;10469;42.720;23.252;2023-03-26T11:07:51;94417.81;;;20.09;32.88
20620;BME280;10469;42.720;23.252;2023-03-26T11:10:38;94419.00;;;19.67;35.29
20620;BME280;10469;42.720;23.252;2023-03-26T11:15:51;94418.09;;;19.02;34.76
20620;BME280;10469;42.720;23.252;2023-03-26T11:18:43;94397.78;;;18.67;34.86
20620;BME280;10469;42.720;23.252;2023-03-26T11:21:17;94422.00;;;18.83;35.82
20620;BME280;10469;42.720;23.252;2023-03-26T11:29:16;94386.81;;;22.61;31.79
20620;BME280;10469;42.720;23.252;2023-03-26T11:31:58;94354.66;;;23.22;31.28
20620;BME280;10469;42.720;23.252;2023-03-26T11:34:34;94380.94;;;23.44;31.04
20620;BME280;10469;42.720;23.252;2023-03-26T11:37:05;94376.03;;;24.09;29.01
20620;BME280;10469;42.720;23.252;2023-03-26T11:39:42;94372.84;;;20.34;32.00
20620;BME280;10469;42.720;23.252;2023-03-26T11:42:13;94364.63;;;19.53;34.44
20620;BME280;10469;42.720;23.252;2023-03-26T11:45:05;94378.75;;;19.27;34.20
20620;BME280;10469;42.720;23.252;2023-03-26T11:47:51;94349.50;;;20.19;33.52
20620;BME280;10469;42.720;23.252;2023-03-26T11:50:26;94365.78;;;18.64;34.86
20620;BME280;10469;42.720;23.252;2023-03-26T11:53:05;94345.22;;;19.18;32.54
20620;BME280;10469;42.720;23.252;2023-03-26T11:55:37;94349.44;;;19.24;32.59
20620;BME280;10469;42.720;23.252;2023-03-26T11:58:19;94345.97;;;18.64;34.24
20620;BME280;10469;42.720;23.252;2023-03-26T12:00:47;94343.41;;;18.72;33.88
20620;BME280;10469;42.720;23.252;2023-03-26T12:03:15;94322.47;;;21.16;30.74
20620;BME280;10469;42.720;23.252;2023-03-26T12:05:49;94323.06;;;20.65;29.10
20620;BME280;10469;42.720;23.252;2023-03-26T12:08:29;94325.63;;;21.84;29.97
20620;BME280;10469;42.720;23.252;2023-03-26T12:11:04;94313.44;;;19.55;31.45
20620;BME280;10469;42.720;23.252;2023-03-26T12:13:42;94319.66;;;19.19;32.23
20620;BME280;10469;42.720;23.252;2023-03-26T12:16:18;94321.69;;;19.00;32.52
20620;BME280;10469;42.720;23.252;2023-03-26T12:18:45;94310.09;;;18.67;33.96
20620;BME280;10469;42.720;23.252;2023-03-26T12:21:15;94308.63;;;18.28;34.38
20620;BME280;10469;42.720;23.252;2023-03-26T12:24:02;94300.75;;;17.23;34.58
20620;BME280;10469;42.720;23.252;2023-03-26T12:26:42;94303.31;;;17.34;33.80
20620;BME280;10469;42.720;23.252;2023-03-26T12:29:13;94279.13;;;17.18;34.01
20620;BME280;10469;42.720;23.252;2023-03-26T12:34:32;94269.19;;;18.17;30.98
20620;BME280;10469;42.720;23.252;2023-03-26T12:37:03;94254.44;;;17.76;31.19
20620;BME280;10469;42.720;23.252;2023-03-26T12:39:34;94293.69;;;17.22;33.37
20620;BME280;10469;42.720;23.252;2023-03-26T12:42:01;94283.66;;;17.61;33.30
20620;BME280;10469;42.720;23.252;2023-03-26T12:44:37;94277.88;;;18.33;31.70
20620;BME280;10469;42.720;23.252;2023-03-26T12:47:21;94271.50;;;17.58;31.63
20620;BME280;10469;42.720;23.252;2023-03-26T12:49:49;94272.63;;;16.76;31.12
20620;BME280;10469;42.720;23.252;2023-03-26T12:52:51;94272.00;;;17.60;31.16
20620;BME280;10469;42.720;23.252;2023-03-26T12:58:03;94270.16;;;17.93;30.03
20620;BME280;10469;42.720;23.252;2023-03-26T13:03:29;94272.56;;;16.34;28.88
20620;BME280;10469;42.720;23.252;2023-03-26T13:06:19;94269.47;;;16.45;28.48
20620;BME280;10469;42.720;23.252;2023-03-26T13:09:04;94273.84;;;16.41;29.79
20620;BME280;10469;42.720;23.252;2023-03-26T13:14:28;94217.28;;;16.40;29.21
20620;BME280;10469;42.720;23.252;2023-03-26T13:17:21;94236.56;;;16.81;29.62
20620;BME280;10469;42.720;23.252;2023-03-26T13:20:18;94249.47;;;16.41;30.55
20620;BME280;10469;42.720;23.252;2023-03-26T13:24:02;94242.63;;;16.73;30.34
20620;BME280;10469;42.720;23.252;2023-03-26T13:45:38;94242.59;;;16.49;32.50
20620;BME280;10469;42.720;23.252;2023-03-26T13:48:15;94223.50;;;16.40;32.44
20620;BME280;10469;42.720;23.252;2023-03-26T13:50:48;94223.25;;;16.85;31.21
20620;BME280;10469;42.720;23.252;2023-03-26T13:53:20;94233.75;;;16.43;29.62
20620;BME280;10469;42.720;23.252;2023-03-26T13:55:50;94236.63;;;16.52;30.90
20620;BME280;10469;42.720;23.252;2023-03-26T13:58:25;94232.53;;;16.30;28.97
20620;BME280;10469;42.720;23.252;2023-03-26T14:06:39;94222.56;;;16.74;30.96
20620;BME280;10469;42.720;23.252;2023-03-26T14:14:54;94206.94;;;16.47;31.01
20620;BME280;10469;42.720;23.252;2023-03-26T14:23:10;94193.78;;;16.59;32.92
20620;BME280;10469;42.720;23.252;2023-03-26T14:26:09;94196.75;;;16.82;31.27
20620;BME280;10469;42.720;23.252;2023-03-26T14:28:50;94208.47;;;16.96;31.70
20620;BME280;10469;42.720;23.252;2023-03-26T14:37:16;94194.69;;;16.92;32.19
20620;BME280;10469;42.720;23.252;2023-03-26T14:45:50;94184.84;;;17.01;32.30
20620;BME280;10469;42.720;23.252;2023-03-26T14:48:30;94183.03;;;16.54;33.11
20620;BME280;10469;42.720;23.252;2023-03-26T14:54:12;94174.06;;;16.77;30.73
20620;BME280;10469;42.720;23.252;2023-03-26T15:17:15;94198.81;;;16.66;34.37
20620;BME280;10469;42.720;23.252;2023-03-26T15:22:10;94194.22;;;16.66;33.66
20620;BME280;10469;42.720;23.252;2023-03-26T15:25:30;94193.94;;;16.68;34.41
20620;BME280;10469;42.720;23.252;2023-03-26T15:28:24;94164.50;;;16.42;35.50
20620;BME280;10469;42.720;23.252;2023-03-26T15:42:52;94194.19;;;16.23;36.24
20620;BME280;10469;42.720;23.252;2023-03-26T15:53:46;94193.22;;;16.14;37.26
20620;BME280;10469;42.720;23.252;2023-03-26T16:13:32;94197.63;;;15.52;38.52
20620;BME280;10469;42.720;23.252;2023-03-26T16:16:19;94199.63;;;15.36;39.44
20620;BME280;10469;42.720;23.252;2023-03-26T16:18:57;94175.22;;;15.17;39.58
20620;BME280;10469;42.720;23.252;2023-03-26T16:21:59;94197.81;;;15.26;39.59
20620;BME280;10469;42.720;23.252;2023-03-26T16:24:26;94197.69;;;15.08;40.06
20620;BME280;10469;42.720;23.252;2023-03-26T16:27:27;94207.75;;;14.97;40.29
20620;BME280;10469;42.720;23.252;2023-03-26T16:33:13;94225.94;;;14.81;40.88
20620;BME280;10469;42.720;23.252;2023-03-26T16:36:44;94217.84;;;14.76;40.99
20620;BME280;10469;42.720;23.252;2023-03-26T16:39:11;94216.03;;;14.66;41.51
20620;BME280;10469;42.720;23.252;2023-03-26T16:44:24;94215.50;;;14.59;41.63
20620;BME280;10469;42.720;23.252;2023-03-26T16:52:43;94210.47;;;14.37;42.77
20620;BME280;10469;42.720;23.252;2023-03-26T16:55:17;94205.88;;;14.38;42.71
20620;BME280;10469;42.720;23.252;2023-03-26T17:00:28;94192.16;;;14.29;43.48
20620;BME280;10469;42.720;23.252;2023-03-26T17:03:03;94209.63;;;14.47;43.10
20620;BME280;10469;42.720;23.252;2023-03-26T17:08:57;94218.53;;;14.52;42.88
20620;BME280;10469;42.720;23.252;2023-03-26T17:14:12;94213.38;;;14.46;43.19
20620;BME280;10469;42.720;23.252;2023-03-26T17:17:11;94213.16;;;14.42;43.76
20620;BME280;10469;42.720;23.252;2023-03-26T17:22:18;94223.72;;;14.23;44.92
20620;BME280;10469;42.720;23.252;2023-03-26T17:24:59;94224.81;;;14.22;45.17
20620;BME280;10469;42.720;23.252;2023-03-26T17:27:53;94223.53;;;14.04;45.99
20620;BME280;10469;42.720;23.252;2023-03-26T17:32:58;94228.41;;;13.87;47.45
20620;BME280;10469;42.720;23.252;2023-03-26T17:35:42;94231.63;;;13.89;47.68
20620;BME280;10469;42.720;23.252;2023-03-26T17:40:54;94207.72;;;13.62;49.36
20620;BME280;10469;42.720;23.252;2023-03-26T17:43:45;94219.81;;;13.70;49.42
20620;BME280;10469;42.720;23.252;2023-03-26T17:48:41;94198.56;;;13.48;49.79
20620;BME280;10469;42.720;23.252;2023-03-26T17:56:45;94223.34;;;13.60;49.53
20620;BME280;10469;42.720;23.252;2023-03-26T17:59:19;94212.56;;;13.60;50.05
20620;BME280;10469;42.720;23.252;2023-03-26T18:01:50;94209.88;;;13.45;51.90
20620;BME280;10469;42.720;23.252;2023-03-26T18:04:28;94214.19;;;13.46;51.00
20620;BME280;10469;42.720;23.252;2023-03-26T18:16:09;94213.09;;;13.67;47.69
20620;BME280;10469;42.720;23.252;2023-03-26T18:18:19;94201.53;;;13.57;48.33
20620;BME280;10469;42.720;23.252;2023-03-26T18:20:48;94203.91;;;13.68;47.48
20620;BME280;10469;42.720;23.252;2023-03-26T18:23:29;94203.13;;;13.68;47.25
20620;BME280;10469;42.720;23.252;2023-03-26T18:26:12;94204.75;;;13.59;49.05
20620;BME280;10469;42.720;23.252;2023-03-26T18:28:44;94185.91;;;13.53;48.62
20620;BME280;10469;42.720;23.252;2023-03-26T18:31:19;94186.16;;;13.57;48.42
20620;BME280;10469;42.720;23.252;2023-03-26T18:33:47;94188.31;;;13.65;48.06
20620;BME280;10469;42.720;23.252;2023-03-26T18:36:14;94189.13;;;13.66;48.23
20620;BME280;10469;42.720;23.252;2023-03-26T18:38:40;94189.94;;;13.41;49.12
20620;BME280;10469;42.720;23.252;2023-03-26T18:41:16;94169.22;;;13.05;48.84
20620;BME280;10469;42.720;23.252;2023-03-26T18:43:45;94177.56;;;13.19;47.32
20620;BME280;10469;42.720;23.252;2023-03-26T18:46:12;94171.66;;;13.22;47.62
20620;BME280;10469;42.720;23.252;2023-03-26T18:48:38;94164.66;;;13.21;48.28
20620;BME280;10469;42.720;23.252;2023-03-26T18:51:05;94167.88;;;13.23;48.90
20620;BME280;10469;42.720;23.252;2023-03-26T18:53:38;94160.84;;;13.07;47.91
20620;BME280;10469;42.720;23.252;2023-03-26T18:56:39;94167.59;;;13.10;47.32
20620;BME280;10469;42.720;23.252;2023-03-26T18:59:18;94168.41;;;13.15;46.89
20620;BME280;10469;42.720;23.252;2023-03-26T19:01:46;94154.41;;;13.13;46.95
20620;BME280;10469;42.720;23.252;2023-03-26T19:04:13;94166.28;;;13.27;47.53
20620;BME280;10469;42.720;23.252;2023-03-26T19:06:41;94136.91;;;13.16;47.71
20620;BME280;10469;42.720;23.252;2023-03-26T19:09:08;94156.03;;;13.24;47.55
20620;BME280;10469;42.720;23.252;2023-03-26T19:11:38;94139.34;;;13.17;48.25
20620;BME280;10469;42.720;23.252;2023-03-26T19:14:11;94142.56;;;13.14;47.77
20620;BME280;10469;42.720;23.252;2023-03-26T19:16:37;94149.00;;;13.08;48.09